Detall de PIREP

Printer-friendly versionPDF version

[2013/06/10 10:04:00]
Flight IATA:CT0001
Pilot Number:042
Company ICAO:CAT
Aircraft Type:F100/F
PAX:30
Aircraft Registration:DA
Departing Airport: LEMH
Destination Airport: LEDA
Alternate Airport:LEGE
Online: VATSIM
Route:LUNIK A25 BCN G23 REBUL
Flight Level:F180
No Slew and time accel
No pause
Crash detect
Detect pilot in Cockpit between each 30 and 45 minutes
10:04 Zero fuel Weight: 80839 Lbs, Fuel Weight: 23635 Lbs
10:04 VATSIM:LEMH 100930Z 06012KT 020V100 9999 FEW020 21/13 Q1015
10:04 VATSIM:LEDA 091230Z 28007KT 240V330 9999 -RA FEW015 SCT020 17/11 Q1010
10:04 VOICE CATALONIAN
10:18 Parking Brakes off
10:22 Take-off
10:22 Take off Weight: 103955 Lbs
10:22 Wind: 209º @ 009 Knots Heading: 007º
10:22 POS N39º 52´ 01´´ E004º 13´ 10´´
10:22 Gear Up: 150 Knots
10:22 Flaps:2 at 150 Knots
10:23 Flaps:1 at 155 Knots
10:23 Flaps:0 at 161 Knots
10:34 TOC
10:34 Fuel Weight: 21454 Lb
10:37 Wind:309º@042 Knots Heading: 311º Ground Speed: 342 Knots Altitude 17995 ft
10:52 Wind:313º@044 Knots Heading: 299º Ground Speed: 340 Knots Altitude 17985 ft
10:56 TOD
10:56 Fuel Weight: 19485 Lb
11:04 Flaps:1 at 186 Knots
11:07 Wind:334º@026 Knots Heading: 319º Ground Speed: 181 Knots Altitude 5416 ft
11:10 Flaps:2 at 187 Knots
11:10 Flaps:3 at 177 Knots
11:11 Gear Down: 172 Knots
11:11 Flaps:4 at 167 Knots
11:14 TouchDown:Rate -414 ft/min Speed: 156 Knots
11:14 VATSIM:LEDA 091230Z 28007KT 240V330 9999 -RA FEW015 SCT020 17/11 Q1010
11:14 Land
11:14 Wind:000º@000 Knots
11:14 Heading: 313º
11:14 Flight Duration: 00:52
11:14 Landing Weight: 99368 Lbs
11:14 POS N41º 43´ 47´´ E000º 31´ 57´´
11:14 Parking brakes on
11:14 Block to Block Duration: 00:56
11:14 Final Fuel: 18518 Lbls
11:14 Spent Fuel: 5116 Lbls
11:14 Flight Length: 246 NM
11:14 TOD Land Length: 67 NM

Exportar CSV

Powered by Drupal - Modified by Danger4k